createdAt,value
2019-01-04T00:00:31.428Z,96.70
2019-01-04T00:03:00.894Z,96.70
2019-01-04T00:05:30.489Z,96.70
2019-01-04T00:07:59.967Z,96.90
2019-01-04T00:10:29.419Z,97.00
2019-01-04T00:12:58.845Z,97.00
2019-01-04T00:15:28.286Z,97.00
2019-01-04T00:17:57.860Z,97.00
2019-01-04T00:20:27.385Z,97.00
2019-01-04T00:22:56.895Z,97.10
2019-01-04T00:25:26.335Z,97.50
2019-01-04T00:27:55.866Z,97.20
2019-01-04T00:30:25.397Z,97.30
2019-01-04T00:32:55.017Z,97.40
2019-01-04T00:35:24.582Z,97.50
2019-01-04T00:37:54.228Z,97.60
2019-01-04T00:40:23.927Z,97.60
2019-01-04T00:42:53.540Z,97.60
2019-01-04T00:45:23.070Z,97.60
2019-01-04T00:47:52.533Z,97.60
2019-01-04T00:50:22.045Z,97.70
2019-01-04T00:52:51.558Z,97.60
2019-01-04T00:55:28.551Z,97.60
2019-01-04T00:58:05.136Z,97.50
2019-01-04T01:01:03.107Z,97.50
2019-01-04T01:03:54.957Z,97.40
2019-01-04T01:07:16.470Z,97.40
2019-01-04T01:10:36.989Z,97.40
2019-01-04T01:13:38.116Z,97.40
2019-01-04T01:16:17.667Z,97.40
2019-01-04T01:19:20.943Z,97.40
2019-01-04T01:22:14.012Z,97.50
2019-01-04T01:25:12.064Z,97.40
2019-01-04T01:28:03.937Z,97.40
2019-01-04T01:34:01.198Z,97.50
2019-01-04T01:36:40.681Z,97.50
2019-01-04T01:39:51.135Z,97.50
2019-01-04T01:43:05.711Z,97.50
2019-01-04T01:45:54.965Z,97.50
2019-01-04T01:48:26.828Z,97.50
2019-01-04T01:51:21.857Z,97.50
2019-01-04T01:53:51.328Z,97.50
2019-01-04T01:56:20.768Z,97.60
2019-01-04T01:58:50.211Z,97.60
2019-01-04T02:01:19.685Z,97.60
2019-01-04T02:03:49.189Z,97.50
2019-01-04T02:06:18.643Z,97.60
2019-01-04T02:08:48.132Z,97.50
2019-01-04T02:11:17.653Z,97.50
2019-01-04T02:13:47.183Z,97.50
2019-01-04T02:16:16.647Z,97.40
2019-01-04T02:18:46.092Z,97.40
2019-01-04T02:21:15.626Z,97.40
2019-01-04T02:23:45.054Z,97.40
2019-01-04T02:26:14.497Z,97.40
2019-01-04T02:28:43.928Z,97.40
2019-01-04T02:31:13.394Z,97.40
2019-01-04T02:33:42.920Z,97.40
2019-01-04T02:36:12.403Z,97.40
2019-01-04T02:38:41.847Z,97.40
2019-01-04T02:41:11.269Z,97.50
2019-01-04T02:43:40.741Z,97.50
2019-01-04T02:46:10.182Z,97.50
2019-01-04T02:48:39.643Z,97.50
2019-01-04T02:51:09.130Z,97.50
2019-01-04T02:53:38.599Z,97.50
2019-01-04T02:56:07.998Z,97.50
2019-01-04T02:58:37.415Z,97.40
2019-01-04T03:01:07.540Z,97.50
2019-01-04T03:03:36.966Z,97.50
2019-01-04T03:06:06.397Z,97.40
2019-01-04T03:08:35.835Z,97.50
2019-01-04T03:11:05.266Z,97.50
2019-01-04T03:13:34.680Z,97.50
2019-01-04T03:16:04.218Z,97.50
2019-01-04T03:18:33.657Z,97.50
2019-01-04T03:21:03.115Z,97.50
2019-01-04T03:23:32.611Z,97.50
2019-01-04T03:26:02.124Z,97.50
2019-01-04T03:28:31.582Z,97.50
2019-01-04T03:31:01.183Z,97.50
2019-01-04T03:33:30.627Z,97.50
2019-01-04T03:36:00.073Z,97.50
2019-01-04T03:38:29.556Z,97.50
2019-01-04T03:40:59.191Z,97.50
2019-01-04T03:43:28.619Z,97.50
2019-01-04T03:45:58.113Z,97.60
2019-01-04T03:48:27.717Z,97.50
2019-01-04T03:50:57.319Z,97.60
2019-01-04T03:53:26.774Z,97.60
2019-01-04T03:55:56.224Z,97.60
2019-01-04T03:58:25.659Z,97.60
2019-01-04T04:00:55.149Z,97.60
2019-01-04T04:03:24.621Z,97.60
2019-01-04T04:05:54.096Z,97.60
2019-01-04T04:08:23.568Z,97.60
2019-01-04T04:10:52.998Z,97.60
2019-01-04T04:13:22.632Z,97.60
2019-01-04T04:15:52.128Z,97.60
2019-01-04T04:18:21.569Z,97.50
2019-01-04T04:20:50.969Z,97.50
2019-01-04T04:23:20.452Z,97.50
2019-01-04T04:25:49.977Z,97.40
2019-01-04T04:28:19.424Z,97.40
2019-01-04T04:30:48.932Z,97.40
2019-01-04T04:33:18.375Z,97.40
2019-01-04T04:35:47.827Z,97.40
2019-01-04T04:38:17.300Z,97.40
2019-01-04T04:40:46.778Z,97.40
2019-01-04T04:43:16.227Z,97.50
2019-01-04T04:45:45.674Z,97.50
2019-01-04T04:48:15.171Z,97.50
2019-01-04T04:50:44.645Z,97.60
2019-01-04T04:53:14.336Z,97.50
2019-01-04T04:55:43.770Z,97.50
2019-01-04T04:58:13.336Z,97.50
2019-01-04T05:00:42.796Z,97.60
2019-01-04T05:03:12.243Z,97.60
2019-01-04T05:05:41.710Z,97.50
2019-01-04T05:08:11.175Z,97.60
2019-01-04T05:10:40.609Z,97.60
2019-01-04T05:13:10.102Z,97.70
2019-01-04T05:15:39.550Z,97.70
2019-01-04T05:18:09.011Z,97.80
2019-01-04T05:20:38.490Z,97.80
2019-01-04T05:23:07.937Z,97.80
2019-01-04T05:25:37.382Z,97.80
2019-01-04T05:28:06.872Z,97.80
2019-01-04T05:30:36.321Z,97.80
2019-01-04T05:33:05.759Z,97.80
2019-01-04T05:35:35.231Z,97.90
2019-01-04T05:38:04.697Z,97.80
2019-01-04T05:40:34.142Z,97.80
2019-01-04T05:43:03.612Z,97.80
2019-01-04T05:45:33.074Z,97.80
2019-01-04T05:48:02.495Z,97.80
2019-01-04T05:50:31.981Z,97.90
2019-01-04T05:53:01.446Z,97.80
2019-01-04T05:55:30.886Z,97.80
2019-01-04T05:58:00.318Z,97.80
2019-01-04T06:00:29.804Z,97.90
2019-01-04T06:02:59.275Z,97.90
2019-01-04T06:05:28.703Z,98.00
2019-01-04T06:07:58.169Z,98.00
2019-01-04T06:10:27.633Z,98.00
2019-01-04T06:12:57.091Z,98.40
2019-01-04T06:15:26.569Z,98.30
2019-01-04T06:17:56.017Z,98.40
2019-01-04T06:20:25.479Z,98.30
2019-01-04T06:22:54.966Z,98.50
2019-01-04T06:25:24.411Z,98.70
2019-01-04T06:27:53.858Z,98.50
2019-01-04T06:30:23.356Z,98.60
2019-01-04T06:32:52.806Z,98.60
2019-01-04T06:35:22.268Z,98.60
2019-01-04T06:37:51.818Z,98.60
2019-01-04T06:40:21.352Z,98.80
2019-01-04T06:42:50.800Z,98.90
2019-01-04T06:45:20.347Z,99.00
2019-01-04T06:47:49.795Z,98.80
2019-01-04T06:50:19.266Z,98.80
2019-01-04T06:52:48.745Z,98.80
2019-01-04T06:55:22.810Z,98.80
2019-01-04T06:57:52.262Z,98.80
2019-01-04T07:00:21.741Z,98.80
2019-01-04T07:02:51.208Z,98.90
2019-01-04T07:05:20.658Z,98.80
2019-01-04T07:07:50.128Z,98.80
2019-01-04T07:10:19.564Z,99.00
2019-01-04T07:12:49.008Z,98.90
2019-01-04T07:15:18.585Z,98.80
2019-01-04T07:17:48.027Z,98.90
2019-01-04T07:20:17.496Z,98.90
2019-01-04T07:22:46.986Z,98.90
2019-01-04T07:25:16.445Z,99.00
2019-01-04T07:27:45.953Z,98.90
2019-01-04T07:30:15.603Z,99.20
2019-01-04T07:32:45.043Z,98.90
2019-01-04T07:35:14.582Z,98.90
2019-01-04T07:37:44.204Z,98.90
2019-01-04T07:40:14.184Z,98.80
2019-01-04T07:42:43.662Z,98.80
2019-01-04T07:45:13.183Z,98.80
2019-01-04T07:47:42.622Z,98.90
2019-01-04T07:50:12.281Z,98.90
2019-01-04T07:52:41.825Z,99.00
2019-01-04T07:55:11.400Z,98.90
2019-01-04T07:57:40.899Z,98.90
2019-01-04T08:00:12.657Z,98.90
2019-01-04T08:02:44.262Z,98.90
2019-01-04T08:05:19.406Z,99.00
2019-01-04T08:07:48.902Z,98.90
2019-01-04T08:10:18.338Z,99.00
2019-01-04T08:12:47.833Z,99.10
2019-01-04T08:15:17.359Z,99.10
2019-01-04T08:17:46.823Z,99.20
2019-01-04T08:20:16.302Z,99.30
2019-01-04T08:22:45.944Z,99.20
2019-01-04T08:25:15.686Z,99.20
2019-01-04T08:27:45.137Z,99.40
2019-01-04T08:30:14.831Z,99.40
2019-01-04T08:32:44.301Z,99.40
2019-01-04T08:35:13.963Z,99.50
2019-01-04T08:37:43.495Z,99.40
2019-01-04T08:40:13.183Z,99.50
2019-01-04T08:42:42.801Z,99.50
2019-01-04T08:45:12.264Z,99.40
2019-01-04T08:47:41.876Z,99.40
2019-01-04T08:50:11.583Z,99.50
2019-01-04T08:52:41.096Z,99.50
2019-01-04T08:55:10.961Z,99.50
2019-01-04T08:57:40.405Z,99.50
2019-01-04T09:00:13.147Z,99.50
2019-01-04T09:02:42.613Z,99.50
2019-01-04T09:05:12.118Z,99.40
2019-01-04T09:07:41.704Z,99.50
2019-01-04T09:10:11.343Z,99.40
2019-01-04T09:12:40.842Z,99.80
2019-01-04T09:15:10.555Z,99.40
2019-01-04T09:17:40.021Z,99.40
2019-01-04T09:20:10.356Z,99.30
2019-01-04T09:22:40.050Z,99.30
2019-01-04T09:25:10.123Z,99.10
2019-01-04T09:30:11.792Z,98.90
2019-01-04T09:32:41.295Z,98.80
2019-01-04T09:35:10.784Z,98.80
2019-01-04T09:37:40.319Z,98.80
2019-01-04T10:14:56.770Z,99.90
2019-01-04T10:17:26.220Z,99.90
2019-01-04T10:19:55.674Z,99.90
2019-01-04T10:22:25.140Z,99.80
2019-01-04T10:24:54.740Z,99.60
2019-01-04T10:27:24.351Z,99.40
2019-01-04T10:29:54.039Z,99.20
2019-01-04T10:32:23.601Z,99.10
2019-01-04T10:34:53.135Z,99.00
2019-01-04T10:37:22.699Z,98.90
2019-01-04T10:39:52.225Z,98.80
2019-01-04T10:42:21.888Z,98.80
2019-01-04T10:44:51.378Z,98.70
2019-01-04T10:47:20.827Z,98.70
2019-01-04T10:49:50.287Z,98.60
2019-01-04T10:52:19.749Z,98.60
2019-01-04T10:54:49.232Z,98.50
2019-01-04T10:57:18.728Z,98.50
2019-01-04T10:59:48.210Z,98.40
2019-01-04T11:02:17.680Z,98.40
2019-01-04T11:04:47.168Z,98.40
2019-01-04T11:07:16.592Z,98.30
2019-01-04T11:09:46.059Z,98.30
2019-01-04T11:12:15.977Z,98.30
2019-01-04T11:14:45.407Z,98.40
2019-01-04T11:17:14.855Z,98.40
2019-01-04T11:19:44.345Z,98.30
2019-01-04T11:22:51.700Z,98.40
2019-01-04T11:25:37.795Z,98.30
2019-01-04T11:28:18.366Z,98.20
2019-01-04T11:30:55.612Z,98.20
2019-01-04T11:33:36.105Z,98.10
2019-01-04T11:36:37.086Z,98.00
2019-01-04T11:39:13.957Z,97.90
2019-01-04T11:42:03.007Z,98.00
2019-01-04T11:45:11.894Z,97.90
2019-01-04T11:47:48.894Z,97.80
2019-01-04T11:50:59.998Z,97.80
2019-01-04T11:53:29.633Z,97.90
2019-01-04T11:55:59.117Z,97.80
2019-01-04T11:58:28.563Z,97.80
2019-01-04T12:00:58.048Z,97.80
2019-01-04T12:03:27.502Z,97.90
2019-01-04T12:05:56.983Z,97.80
2019-01-04T12:08:26.478Z,97.90
2019-01-04T12:10:55.950Z,97.80
2019-01-04T12:13:25.524Z,97.70
2019-01-04T12:15:55.078Z,97.70
2019-01-04T12:18:24.585Z,97.60
2019-01-04T12:20:54.128Z,97.60
2019-01-04T12:23:23.658Z,97.50
2019-01-04T12:25:53.156Z,97.70
2019-01-04T12:28:22.641Z,97.60
2019-01-04T12:30:52.231Z,97.50
2019-01-04T12:33:24.375Z,97.50
2019-01-04T12:35:53.842Z,97.70
2019-01-04T12:38:23.361Z,97.40
2019-01-04T12:40:52.945Z,97.30
2019-01-04T12:43:22.418Z,97.40
2019-01-04T12:45:51.955Z,97.40
2019-01-04T12:48:21.426Z,97.40
2019-01-04T12:50:50.970Z,97.30
2019-01-04T12:53:20.449Z,97.30
2019-01-04T12:55:50.051Z,97.10
2019-01-04T12:58:19.631Z,97.20
2019-01-04T13:00:49.138Z,97.20
2019-01-04T13:03:18.639Z,97.20
2019-01-04T13:05:48.118Z,97.30
2019-01-04T13:08:17.737Z,97.30
2019-01-04T13:10:47.316Z,97.40
2019-01-04T13:13:16.743Z,97.30
2019-01-04T13:15:46.241Z,97.30
2019-01-04T13:18:15.711Z,97.30
2019-01-04T13:20:45.153Z,97.30
2019-01-04T13:23:14.631Z,97.40
2019-01-04T13:25:44.106Z,97.40
2019-01-04T13:28:13.671Z,97.50
2019-01-04T13:30:43.111Z,97.50
2019-01-04T13:33:12.578Z,97.60
2019-01-04T13:35:42.020Z,97.70
2019-01-04T13:38:11.448Z,97.70
2019-01-04T13:40:40.966Z,97.80
2019-01-04T13:43:10.536Z,97.80
2019-01-04T13:45:40.110Z,97.80
2019-01-04T13:48:09.565Z,97.80
2019-01-04T13:50:39.064Z,97.90
2019-01-04T13:53:08.502Z,97.90
2019-01-04T13:55:38.027Z,97.90
2019-01-04T13:58:07.513Z,98.00
2019-01-04T14:00:37.048Z,98.10
2019-01-04T14:03:06.507Z,98.10
2019-01-04T14:05:36.057Z,98.10
2019-01-04T14:08:05.588Z,98.20
2019-01-04T14:10:35.165Z,98.20
2019-01-04T14:13:09.244Z,98.30
2019-01-04T14:15:35.895Z,98.30
2019-01-04T14:18:05.417Z,98.40
2019-01-04T14:20:34.883Z,98.30
2019-01-04T14:23:04.354Z,98.30
2019-01-04T14:25:33.813Z,98.40
2019-01-04T14:28:03.240Z,98.30
2019-01-04T14:30:32.716Z,98.50
2019-01-04T14:33:02.181Z,98.60
2019-01-04T14:35:31.628Z,98.60
2019-01-04T14:38:01.096Z,98.50
2019-01-04T14:40:30.582Z,98.50
2019-01-04T14:43:00.043Z,98.50
2019-01-04T14:45:29.518Z,98.50
2019-01-04T14:47:58.970Z,98.40
2019-01-04T14:50:28.422Z,98.40
2019-01-04T14:52:57.914Z,98.40
2019-01-04T14:55:27.385Z,98.40
2019-01-04T14:57:56.837Z,98.40
2019-01-04T15:00:26.363Z,98.40
2019-01-04T15:02:55.901Z,98.40
2019-01-04T15:05:25.441Z,98.50
2019-01-04T15:07:54.988Z,98.50
2019-01-04T15:10:24.463Z,98.50
2019-01-04T15:12:53.923Z,98.40
2019-01-04T15:15:23.414Z,98.50
2019-01-04T15:17:53.040Z,98.50
2019-01-04T15:20:22.674Z,98.70
2019-01-04T15:22:52.284Z,98.50
2019-01-04T15:25:21.868Z,98.50
2019-01-04T15:27:51.353Z,98.40
2019-01-04T15:30:20.828Z,98.40
2019-01-04T15:32:50.304Z,98.40
2019-01-04T15:35:19.835Z,98.40
2019-01-04T15:37:49.313Z,98.40
2019-01-04T15:40:18.746Z,98.30
2019-01-04T15:42:48.219Z,98.30
2019-01-04T15:45:17.711Z,98.20
2019-01-04T15:47:47.183Z,98.20
2019-01-04T15:50:16.721Z,98.20
2019-01-04T15:52:46.207Z,98.00
2019-01-04T15:55:15.678Z,98.00
2019-01-04T15:57:45.147Z,97.90
2019-01-04T16:00:14.720Z,98.00
2019-01-04T16:02:44.329Z,97.80
2019-01-04T16:05:13.868Z,97.90
2019-01-04T16:07:43.359Z,97.80
2019-01-04T16:10:12.888Z,97.80
2019-01-04T16:12:42.351Z,97.80
2019-01-04T16:15:12.498Z,97.90
2019-01-04T16:17:42.016Z,97.90
2019-01-04T16:20:12.534Z,98.00
2019-01-04T16:22:42.018Z,98.00
2019-01-04T16:25:11.619Z,98.00
2019-01-04T16:27:41.128Z,98.10
2019-01-04T16:30:12.202Z,98.10
2019-01-04T16:32:41.696Z,98.10
2019-01-04T16:35:11.230Z,98.10
2019-01-04T16:37:40.764Z,98.20
2019-01-04T16:40:10.346Z,98.20
2019-01-04T16:42:39.761Z,98.20
2019-01-04T16:45:09.446Z,98.20
2019-01-04T16:47:39.671Z,98.20
2019-01-04T16:50:09.743Z,98.30
2019-01-04T16:52:39.189Z,98.30
2019-01-04T16:55:09.781Z,98.30
2019-01-04T16:57:39.250Z,98.30
2019-01-04T17:00:11.670Z,98.30
2019-01-04T17:02:41.296Z,98.40
2019-01-04T17:05:10.789Z,98.40
2019-01-04T17:07:40.244Z,98.40
2019-01-04T17:10:09.891Z,98.40
2019-01-04T17:12:39.402Z,98.40
2019-01-04T17:15:09.089Z,98.40
2019-01-04T17:17:38.595Z,98.40
2019-01-04T17:20:08.308Z,98.40
2019-01-04T17:22:37.761Z,98.40
2019-01-04T17:25:08.738Z,98.50
2019-01-04T17:27:38.268Z,98.60
2019-01-04T17:30:10.249Z,98.70
2019-01-04T17:32:39.761Z,98.80
2019-01-04T17:35:09.290Z,99.00
2019-01-04T17:37:38.757Z,98.90
2019-01-04T17:40:10.130Z,99.30
2019-01-04T17:42:39.574Z,99.10
2019-01-04T17:45:09.470Z,99.20
2019-01-04T17:47:38.959Z,99.20
2019-01-04T17:50:09.271Z,99.20
2019-01-04T17:52:38.713Z,99.20
2019-01-04T17:55:08.394Z,99.40
2019-01-04T17:57:37.929Z,99.40
2019-01-04T18:00:10.383Z,99.40
2019-01-04T18:02:39.934Z,99.40
2019-01-04T18:05:09.602Z,99.30
2019-01-04T18:07:39.124Z,99.40
2019-01-04T18:10:09.821Z,99.50
2019-01-04T18:12:39.366Z,99.40
2019-01-04T18:15:09.272Z,99.40
2019-01-04T18:17:38.760Z,99.30
2019-01-04T18:20:10.910Z,99.30
2019-01-04T18:22:40.571Z,99.40
2019-01-04T18:27:38.727Z,99.50
2019-01-04T18:30:10.421Z,99.50
2019-01-04T18:32:39.897Z,99.50
2019-01-04T18:35:09.563Z,99.50
2019-01-04T18:37:39.032Z,99.50
2019-01-04T18:40:10.272Z,99.50
2019-01-04T18:42:39.819Z,99.40
2019-01-04T18:45:09.466Z,99.50
2019-01-04T18:47:39.691Z,99.60
2019-01-04T18:50:12.531Z,99.60
2019-01-04T18:52:42.049Z,99.70
2019-01-04T18:55:11.541Z,99.70
2019-01-04T18:57:41.205Z,99.70
2019-01-04T19:00:12.075Z,99.70
2019-01-04T19:02:41.544Z,99.80
2019-01-04T19:05:11.198Z,99.80
2019-01-04T19:07:40.612Z,99.80
2019-01-04T19:10:10.742Z,99.90
2019-01-04T19:12:40.223Z,99.80
2019-01-04T19:15:11.363Z,99.90
2019-01-04T19:17:40.811Z,99.90
2019-01-04T19:20:10.278Z,99.90
2019-01-04T19:22:39.721Z,99.90
2019-01-04T19:25:09.384Z,99.90
2019-01-04T19:27:38.856Z,99.90
2019-01-04T19:30:09.784Z,99.90
2019-01-04T19:32:39.373Z,99.90
2019-01-04T19:35:08.954Z,99.80
2019-01-04T19:37:38.496Z,99.80
2019-01-04T19:40:08.739Z,99.90
2019-01-04T19:42:38.225Z,99.80
2019-01-04T19:45:08.292Z,99.80
2019-01-04T19:47:37.856Z,99.70
2019-01-04T19:50:17.703Z,99.80
2019-01-04T19:52:47.199Z,99.80
2019-01-04T19:55:16.823Z,99.60
2019-01-04T19:57:47.140Z,99.70
2019-01-04T20:00:16.840Z,99.70
2019-01-04T20:02:46.362Z,99.70
2019-01-04T20:05:17.960Z,99.60
2019-01-04T20:08:05.273Z,99.50
2019-01-04T20:11:18.149Z,99.60
2019-01-04T20:14:33.269Z,99.60
2019-01-04T20:17:20.571Z,99.70
2019-01-04T20:19:51.734Z,99.70
2019-01-04T20:22:22.857Z,99.70
2019-01-04T20:25:10.267Z,99.70
2019-01-04T20:27:47.400Z,99.70
2019-01-04T20:30:30.770Z,99.70
2019-01-04T20:33:15.066Z,99.90
2019-01-04T20:36:04.417Z,99.90
2019-01-04T20:38:35.528Z,99.90
2019-01-04T20:41:24.353Z,99.90
2019-01-04T20:44:04.298Z,99.90
2019-01-04T20:46:51.462Z,99.90
2019-01-04T20:49:37.416Z,99.80
2019-01-04T20:52:26.419Z,99.70
2019-01-04T20:55:09.553Z,99.80
2019-01-04T20:57:40.679Z,99.70
2019-01-04T21:00:14.706Z,99.80
2019-01-04T21:02:48.512Z,99.70
2019-01-04T21:05:25.328Z,99.70
2019-01-04T21:08:08.421Z,99.60
2019-01-04T21:10:45.409Z,99.60
2019-01-04T21:13:19.133Z,99.60
2019-01-04T21:15:50.217Z,99.90
2019-01-04T21:18:24.135Z,99.60
2019-01-04T21:21:07.470Z,99.60
2019-01-04T21:23:41.289Z,99.60
2019-01-04T21:26:18.113Z,99.60
2019-01-04T21:28:52.147Z,99.70
2019-01-04T21:31:32.182Z,99.70
2019-01-04T21:34:06.123Z,99.70
2019-01-04T21:36:37.227Z,99.80
2019-01-04T21:39:10.114Z,99.80
2019-01-04T21:41:57.294Z,99.80
2019-01-04T21:44:33.887Z,99.90
2019-01-04T21:47:07.590Z,99.80
2019-01-04T21:49:41.402Z,99.70
2019-01-04T21:52:12.604Z,99.70
2019-01-04T21:54:59.949Z,99.80
2019-01-04T21:57:47.038Z,99.70
2019-01-04T22:00:26.700Z,99.70
2019-01-04T22:02:57.817Z,99.70
2019-01-04T22:05:45.398Z,99.80
2019-01-04T22:08:31.286Z,99.80
2019-01-04T22:11:18.695Z,99.70
2019-01-04T22:13:58.878Z,99.80
2019-01-04T22:16:44.917Z,99.80
2019-01-04T22:19:18.963Z,99.80
2019-01-04T22:22:06.199Z,99.90
2019-01-04T22:24:40.069Z,99.80
2019-01-04T22:27:29.372Z,99.90
2019-01-04T22:30:06.033Z,99.90
2019-01-04T22:32:54.712Z,99.90
2019-01-04T22:35:25.830Z,99.90
2019-01-04T22:38:08.618Z,99.90
2019-01-04T22:40:54.739Z,99.90
2019-01-04T22:43:42.353Z,99.90
2019-01-04T22:46:16.200Z,99.90
2019-01-04T22:48:47.319Z,99.90
2019-01-04T22:51:34.272Z,99.90
2019-01-04T22:54:17.212Z,99.90
2019-01-04T22:57:04.182Z,99.90
2019-01-04T22:59:41.514Z,99.90
2019-01-04T23:02:24.476Z,99.90
2019-01-04T23:05:11.713Z,99.90
2019-01-04T23:07:55.038Z,99.90
2019-01-04T23:10:29.130Z,99.90
2019-01-04T23:13:00.244Z,99.90
2019-01-04T23:15:37.487Z,99.90
2019-01-04T23:18:25.046Z,99.90
2019-01-04T23:21:14.471Z,99.90
2019-01-04T23:24:00.580Z,99.90
2019-01-04T23:26:47.858Z,99.90
2019-01-04T23:29:19.037Z,99.90
2019-01-04T23:31:52.952Z,99.90
2019-01-04T23:34:39.931Z,99.90
2019-01-04T23:37:27.322Z,99.80
2019-01-04T23:39:58.427Z,99.90
2019-01-04T23:42:41.563Z,99.70
2019-01-04T23:45:28.811Z,99.80
2019-01-04T23:48:02.674Z,99.80
2019-01-04T23:50:46.068Z,99.80
2019-01-04T23:53:32.238Z,99.80
2019-01-04T23:56:19.640Z,99.80
2019-01-04T23:59:06.740Z,99.80
